createdAt,value
2018-05-02T00:01:56.128Z,93517.41
2018-05-02T00:04:24.554Z,93501.88
2018-05-02T00:06:54.560Z,93505.13
2018-05-02T00:09:23.307Z,93508.38
2018-05-02T00:11:51.731Z,93498.30
2018-05-02T00:14:22.203Z,93491.89
2018-05-02T00:16:50.664Z,93493.46
2018-05-02T00:19:19.082Z,93496.62
2018-05-02T00:21:51.523Z,93480.95
2018-05-02T00:24:25.513Z,93485.55
2018-05-02T00:26:55.462Z,93485.63
2018-05-02T00:29:25.770Z,93492.56
2018-05-02T00:31:54.197Z,93487.77
2018-05-02T00:34:22.774Z,93485.75
2018-05-02T00:36:51.203Z,93483.54
2018-05-02T00:39:19.666Z,93485.16
2018-05-02T00:41:49.508Z,93484.08
2018-05-02T00:44:17.951Z,93477.16
2018-05-02T00:46:49.911Z,93481.33
2018-05-02T00:49:18.350Z,93479.62
2018-05-02T00:51:46.783Z,93481.02
2018-05-02T00:54:15.221Z,93477.81
2018-05-02T00:56:43.647Z,93474.44
2018-05-02T00:59:17.288Z,93459.34
2018-05-02T01:01:45.743Z,93458.89
2018-05-02T01:04:14.146Z,93455.73
2018-05-02T01:06:44.176Z,93464.50
2018-05-02T01:09:14.833Z,93456.31
2018-05-02T01:11:43.263Z,93453.16
2018-05-02T01:14:13.390Z,93456.19
2018-05-02T01:16:41.863Z,93453.70
2018-05-02T01:19:13.686Z,93455.70
2018-05-02T01:21:42.118Z,93460.34
2018-05-02T01:24:10.580Z,93462.05
2018-05-02T01:26:38.990Z,93459.13
2018-05-02T01:29:07.391Z,93461.48
2018-05-02T01:31:35.835Z,93446.05
2018-05-02T01:34:04.261Z,93444.47
2018-05-02T01:36:32.636Z,93455.02
2018-05-02T01:39:00.994Z,93460.90
2018-05-02T01:41:29.387Z,93445.28
2018-05-02T01:43:57.821Z,93445.38
2018-05-02T01:46:26.224Z,93439.20
2018-05-02T01:49:02.239Z,93436.83
2018-05-02T01:51:30.595Z,93450.47
2018-05-02T01:53:59.023Z,93440.20
2018-05-02T01:56:27.443Z,93440.80
2018-05-02T01:58:55.835Z,93444.62
2018-05-02T02:01:24.311Z,93433.92
2018-05-02T02:03:52.696Z,93437.51
2018-05-02T02:06:22.573Z,93432.22
2018-05-02T02:08:50.991Z,93424.74
2018-05-02T02:11:22.815Z,93431.61
2018-05-02T02:13:51.223Z,93420.14
2018-05-02T02:16:19.615Z,93422.52
2018-05-02T02:18:48.070Z,93420.91
2018-05-02T02:21:16.435Z,93417.98
2018-05-02T02:23:44.819Z,93416.93
2018-05-02T02:26:13.268Z,93422.87
2018-05-02T02:28:43.361Z,93416.91
2018-05-02T02:31:11.837Z,93413.62
2018-05-02T02:33:40.239Z,93425.78
2018-05-02T02:36:08.655Z,93425.55
2018-05-02T02:38:37.096Z,93421.55
2018-05-02T02:41:05.470Z,93429.40
2018-05-02T02:43:33.931Z,93425.44
2018-05-02T02:46:04.342Z,93423.91
2018-05-02T02:48:36.772Z,93426.33
2018-05-02T02:51:05.212Z,93434.83
2018-05-02T02:53:33.598Z,93434.28
2018-05-02T02:56:05.664Z,93439.96
2018-05-02T02:58:39.046Z,93436.63
2018-05-02T03:01:07.531Z,93434.62
2018-05-02T03:03:35.970Z,93437.98
2018-05-02T03:06:06.511Z,93436.63
2018-05-02T03:08:36.523Z,93430.68
2018-05-02T03:11:07.086Z,93433.70
2018-05-02T03:13:35.567Z,93438.16
2018-05-02T03:16:04.000Z,93435.32
2018-05-02T03:18:32.452Z,93438.91
2018-05-02T03:21:00.882Z,93439.89
2018-05-02T03:23:31.286Z,93438.91
2018-05-02T03:25:59.700Z,93439.24
2018-05-02T03:28:28.137Z,93434.77
2018-05-02T03:30:56.559Z,93436.31
2018-05-02T03:33:24.932Z,93430.35
2018-05-02T03:35:55.588Z,93429.80
2018-05-02T03:38:24.040Z,93425.69
2018-05-02T03:40:53.925Z,93420.91
2018-05-02T03:43:22.363Z,93417.61
2018-05-02T03:45:52.239Z,93420.27
2018-05-02T03:48:20.739Z,93418.13
2018-05-02T03:50:49.136Z,93411.09
2018-05-02T03:53:17.539Z,93405.00
2018-05-02T03:55:45.989Z,93395.85
2018-05-02T03:58:20.523Z,93392.42
2018-05-02T04:00:55.012Z,93400.17
2018-05-02T04:03:29.608Z,93402.13
2018-05-02T04:06:04.199Z,93401.88
2018-05-02T04:08:33.308Z,93398.16
2018-05-02T04:11:01.797Z,93398.14
2018-05-02T04:13:31.851Z,93405.08
2018-05-02T04:16:00.211Z,93401.52
2018-05-02T04:18:29.507Z,93397.42
2018-05-02T04:20:59.918Z,93395.94
2018-05-02T04:23:32.720Z,93395.89
2018-05-02T04:26:01.106Z,93399.11
2018-05-02T04:28:29.527Z,93399.59
2018-05-02T04:30:58.008Z,93394.90
2018-05-02T04:33:26.419Z,93400.13
2018-05-02T04:35:54.835Z,93405.95
2018-05-02T04:38:23.451Z,93402.57
2018-05-02T04:40:51.872Z,93406.63
2018-05-02T04:43:21.800Z,93404.53
2018-05-02T04:45:50.538Z,93404.38
2018-05-02T04:48:18.933Z,93407.34
2018-05-02T04:50:47.331Z,93414.94
2018-05-02T04:53:15.798Z,93420.65
2018-05-02T04:55:45.815Z,93414.77
2018-05-02T04:58:14.279Z,93415.92
2018-05-02T05:00:46.382Z,93417.05
2018-05-02T05:03:14.843Z,93426.70
2018-05-02T05:05:47.355Z,93418.83
2018-05-02T05:08:15.795Z,93425.14
2018-05-02T05:10:44.210Z,93429.96
2018-05-02T05:13:12.694Z,93425.58
2018-05-02T05:15:41.076Z,93427.56
2018-05-02T05:18:09.448Z,93429.28
2018-05-02T05:20:37.878Z,93417.85
2018-05-02T05:23:06.263Z,93424.38
2018-05-02T05:25:36.615Z,93420.59
2018-05-02T05:28:05.091Z,93428.12
2018-05-02T05:30:34.920Z,93427.64
2018-05-02T05:33:03.407Z,93432.81
2018-05-02T05:35:31.823Z,93435.22
2018-05-02T05:38:00.286Z,93441.42
2018-05-02T05:40:28.660Z,93440.61
2018-05-02T05:42:57.033Z,93433.92
2018-05-02T05:45:25.388Z,93420.52
2018-05-02T05:47:55.247Z,93414.84
2018-05-02T05:50:23.668Z,93417.91
2018-05-02T05:52:52.068Z,93418.34
2018-05-02T05:55:20.509Z,93414.86
2018-05-02T05:57:52.107Z,93412.13
2018-05-02T06:00:23.699Z,93404.53
2018-05-02T06:02:52.099Z,93408.94
2018-05-02T06:05:20.502Z,93408.59
2018-05-02T06:07:48.934Z,93416.16
2018-05-02T06:10:18.642Z,93419.91
2018-05-02T06:12:47.111Z,93418.11
2018-05-02T06:15:15.543Z,93409.64
2018-05-02T06:17:43.976Z,93407.98
2018-05-02T06:20:12.403Z,93415.87
2018-05-02T06:22:40.807Z,93412.41
2018-05-02T06:25:09.258Z,93413.09
2018-05-02T06:27:37.668Z,93417.15
2018-05-02T06:30:06.111Z,93413.59
2018-05-02T06:32:34.574Z,93410.58
2018-05-02T06:35:02.983Z,93411.78
2018-05-02T06:37:31.519Z,93404.84
2018-05-02T06:39:59.943Z,93408.86
2018-05-02T06:42:28.407Z,93402.00
2018-05-02T06:44:58.180Z,93402.27
2018-05-02T06:47:27.644Z,93401.09
2018-05-02T06:49:56.007Z,93402.13
2018-05-02T06:52:24.465Z,93393.00
2018-05-02T06:54:52.861Z,93398.83
2018-05-02T06:57:22.295Z,93396.95
2018-05-02T06:59:50.898Z,93384.06
2018-05-02T07:02:19.343Z,93390.05
2018-05-02T07:04:47.796Z,93390.27
2018-05-02T07:07:19.315Z,93379.78
2018-05-02T07:09:48.778Z,93383.61
2018-05-02T07:12:18.190Z,93377.98
2018-05-02T07:14:46.655Z,93375.03
2018-05-02T07:17:15.080Z,93363.33
2018-05-02T07:19:43.471Z,93366.89
2018-05-02T07:22:13.447Z,93371.41
2018-05-02T07:24:41.864Z,93367.12
2018-05-02T07:27:10.282Z,93363.68
2018-05-02T07:29:39.686Z,93356.83
2018-05-02T07:32:09.508Z,93368.48
2018-05-02T07:34:37.875Z,93366.49
2018-05-02T07:37:06.335Z,93368.31
2018-05-02T07:39:36.411Z,93364.48
2018-05-02T07:42:04.843Z,93363.47
2018-05-02T07:44:33.231Z,93358.12
2018-05-02T07:47:02.896Z,93355.41
2018-05-02T07:49:33.554Z,93359.16
2018-05-02T07:52:02.050Z,93365.52
2018-05-02T07:54:30.419Z,93357.84
2018-05-02T07:56:58.869Z,93352.41
2018-05-02T07:59:27.295Z,93355.52
2018-05-02T08:01:55.716Z,93351.20
2018-05-02T08:04:25.175Z,93354.13
2018-05-02T08:06:53.636Z,93351.23
2018-05-02T08:09:23.076Z,93349.81
2018-05-02T08:11:52.495Z,93348.20
2018-05-02T08:14:23.149Z,93355.84
2018-05-02T08:16:52.405Z,93357.84
2018-05-02T08:19:22.167Z,93357.13
2018-05-02T08:21:50.596Z,93357.17
2018-05-02T08:24:19.051Z,93361.90
2018-05-02T08:26:47.440Z,93363.71
2018-05-02T08:29:15.852Z,93357.85
2018-05-02T08:31:44.279Z,93363.09
2018-05-02T08:34:12.671Z,93361.52
2018-05-02T08:36:41.140Z,93365.54
2018-05-02T08:39:09.555Z,93363.62
2018-05-02T08:41:37.974Z,93359.89
2018-05-02T08:44:06.423Z,93362.73
2018-05-02T08:46:35.886Z,93368.14
2018-05-02T08:49:04.324Z,93375.03
2018-05-02T08:51:32.809Z,93370.16
2018-05-02T08:54:01.268Z,93382.14
2018-05-02T08:56:28.665Z,93377.05
2018-05-02T08:58:58.459Z,93372.91
2018-05-02T09:01:26.819Z,93379.72
2018-05-02T09:03:56.294Z,93368.09
2018-05-02T09:06:24.681Z,93373.44
2018-05-02T09:08:54.446Z,93366.24
2018-05-02T09:11:22.836Z,93368.42
2018-05-02T09:13:51.284Z,93367.39
2018-05-02T09:16:18.604Z,93355.83
2018-05-02T09:18:48.164Z,93360.68
2018-05-02T09:21:16.586Z,93356.36
2018-05-02T09:23:43.916Z,93354.14
2018-05-02T09:26:12.327Z,93351.97
2018-05-02T09:28:40.681Z,93347.50
2018-05-02T09:31:09.067Z,93345.93
2018-05-02T09:33:38.465Z,93334.64
2018-05-02T09:36:07.770Z,93329.41
2018-05-02T09:38:39.462Z,93326.05
2018-05-02T09:41:06.744Z,93318.48
2018-05-02T09:43:36.163Z,93315.98
2018-05-02T09:46:03.521Z,93305.36
2018-05-02T09:48:34.262Z,93299.16
2018-05-02T09:51:02.517Z,93292.48
2018-05-02T09:53:31.635Z,93290.95
2018-05-02T09:55:58.967Z,93284.89
2018-05-02T09:58:29.960Z,93276.73
2018-05-02T10:00:57.260Z,93275.85
2018-05-02T10:03:25.296Z,93264.63
2018-05-02T10:05:52.594Z,93283.06
2018-05-02T10:08:20.886Z,93279.30
2018-05-02T10:10:48.301Z,93272.71
2018-05-02T10:13:19.089Z,93271.08
2018-05-02T10:15:46.393Z,93263.96
2018-05-02T10:18:17.118Z,93270.58
2018-05-02T10:20:44.484Z,93271.37
2018-05-02T10:23:11.780Z,93269.30
2018-05-02T10:25:39.132Z,93272.18
2018-05-02T10:28:09.103Z,93271.07
2018-05-02T10:30:36.411Z,93275.98
2018-05-02T10:33:04.844Z,93271.48
2018-05-02T10:35:32.261Z,93275.98
2018-05-02T10:37:59.597Z,93270.06
2018-05-02T10:40:26.925Z,93272.59
2018-05-02T10:42:54.244Z,93268.97
2018-05-02T10:45:22.331Z,93265.25
2018-05-02T10:47:49.704Z,93270.58
2018-05-02T10:50:21.063Z,93267.38
2018-05-02T10:52:48.389Z,93271.81
2018-05-02T10:55:19.530Z,93260.22
2018-05-02T10:57:47.587Z,93268.40
2018-05-02T11:00:14.925Z,93258.41
2018-05-02T11:02:42.260Z,93260.48
2018-05-02T11:05:09.569Z,93257.43
2018-05-02T11:07:36.890Z,93264.48
2018-05-02T11:10:07.631Z,93258.56
2018-05-02T11:12:34.935Z,93259.53
2018-05-02T11:15:02.629Z,93252.56
2018-05-02T11:17:30.717Z,93261.61
2018-05-02T11:19:58.057Z,93256.51
2018-05-02T11:22:25.650Z,93253.50
2018-05-02T11:24:52.994Z,93258.91
2018-05-02T11:27:21.741Z,93251.78
2018-05-02T11:29:49.152Z,93260.53
2018-05-02T11:32:17.491Z,93255.94
2018-05-02T11:34:44.826Z,93255.27
2018-05-02T11:37:12.489Z,93250.84
2018-05-02T11:39:40.601Z,93241.67
2018-05-02T11:42:07.891Z,93241.15
2018-05-02T11:44:35.225Z,93232.83
2018-05-02T11:47:03.390Z,93242.44
2018-05-02T11:49:32.311Z,93232.63
2018-05-02T11:51:59.734Z,93241.65
2018-05-02T11:54:29.387Z,93240.77
2018-05-02T11:56:57.817Z,93239.33
2018-05-02T11:59:25.479Z,93240.89
2018-05-02T12:01:54.939Z,93239.52
2018-05-02T12:04:23.367Z,93240.55
2018-05-02T12:06:50.707Z,93239.27
2018-05-02T12:09:21.440Z,93237.52
2018-05-02T12:11:49.082Z,93234.12
2018-05-02T12:14:17.498Z,93241.53
2018-05-02T12:16:45.552Z,93237.00
2018-05-02T12:19:12.900Z,93233.16
2018-05-02T12:21:43.696Z,93232.37
2018-05-02T12:24:11.020Z,93228.71
2018-05-02T12:26:38.375Z,93238.08
2018-05-02T12:29:06.820Z,93238.39
2018-05-02T12:31:34.233Z,93230.09
2018-05-02T12:34:02.658Z,93233.75
2018-05-02T12:36:30.004Z,93233.66
2018-05-02T12:38:58.387Z,93239.25
2018-05-02T12:41:25.729Z,93231.23
2018-05-02T12:43:54.116Z,93232.91
2018-05-02T12:46:21.477Z,93220.41
2018-05-02T12:48:49.902Z,93224.31
2018-05-02T12:51:17.265Z,93222.03
2018-05-02T12:53:44.569Z,93207.18
2018-05-02T12:56:14.099Z,93209.54
2018-05-02T12:58:42.480Z,93207.59
2018-05-02T13:01:09.841Z,93206.98
2018-05-02T13:03:39.148Z,93197.36
2018-05-02T13:06:06.556Z,93194.43
2018-05-02T13:08:35.550Z,93189.77
2018-05-02T13:11:02.894Z,93190.59
2018-05-02T13:13:32.411Z,93188.85
2018-05-02T13:16:03.124Z,93197.87
2018-05-02T13:18:30.459Z,93189.38
2018-05-02T13:20:59.786Z,93181.31
2018-05-02T13:23:28.287Z,93183.48
2018-05-02T13:25:55.556Z,93178.98
2018-05-02T13:28:26.323Z,93182.61
2018-05-02T13:30:53.647Z,93179.70
2018-05-02T13:33:24.672Z,93185.08
2018-05-02T13:35:52.036Z,93179.44
2018-05-02T13:38:20.392Z,93177.67
2018-05-02T13:40:47.754Z,93184.34
2018-05-02T13:43:15.848Z,93178.02
2018-05-02T13:45:46.616Z,93171.31
2018-05-02T13:48:14.012Z,93174.39
2018-05-02T13:50:41.334Z,93165.27
2018-05-02T13:53:12.080Z,93168.85
2018-05-02T13:55:39.396Z,93178.97
2018-05-02T13:58:10.158Z,93181.19
2018-05-02T14:00:37.454Z,93181.59
2018-05-02T14:03:06.967Z,93184.12
2018-05-02T14:05:34.263Z,93175.86
2018-05-02T14:08:03.718Z,93168.17
2018-05-02T14:10:31.048Z,93167.61
2018-05-02T14:13:00.512Z,93159.62
2018-05-02T14:15:29.013Z,93157.00
2018-05-02T14:17:57.427Z,93159.42
2018-05-02T14:20:25.518Z,93163.46
2018-05-02T14:22:55.079Z,93162.63
2018-05-02T14:25:25.791Z,93156.33
2018-05-02T14:27:53.105Z,93161.17
2018-05-02T14:30:22.594Z,93161.67
2018-05-02T14:32:51.090Z,93165.06
2018-05-02T14:35:20.395Z,93163.22
2018-05-02T14:37:48.763Z,93162.98
2018-05-02T14:40:17.414Z,93170.00
2018-05-02T14:42:46.840Z,93179.50
2018-05-02T14:45:15.294Z,93174.53
2018-05-02T14:47:43.747Z,93174.47
2018-05-02T14:50:12.187Z,93168.77
2018-05-02T14:52:39.576Z,93176.07
2018-05-02T14:55:09.037Z,93177.06
2018-05-02T14:57:37.441Z,93176.45
2018-05-02T15:00:04.809Z,93179.13
2018-05-02T15:02:34.279Z,93176.40
2018-05-02T15:05:03.913Z,93174.79
2018-05-02T15:07:34.705Z,93174.17
2018-05-02T15:10:02.116Z,93176.81
2018-05-02T15:12:31.585Z,93178.84
2018-05-02T15:14:59.998Z,93180.67
2018-05-02T15:17:28.349Z,93179.70
2018-05-02T15:19:56.707Z,93180.52
2018-05-02T15:22:24.041Z,93176.25
2018-05-02T15:24:54.983Z,93178.98
2018-05-02T15:27:23.404Z,93176.91
2018-05-02T15:29:51.847Z,93182.36
2018-05-02T15:32:19.192Z,93190.56
2018-05-02T15:34:48.679Z,93191.82
2018-05-02T15:37:17.454Z,93202.45
2018-05-02T15:39:44.876Z,93200.17
2018-05-02T15:42:13.983Z,93204.39
2018-05-02T15:44:42.422Z,93204.66
2018-05-02T15:47:09.821Z,93206.41
2018-05-02T15:49:39.271Z,93210.87
2018-05-02T15:52:07.715Z,93205.62
2018-05-02T15:54:35.053Z,93201.47
2018-05-02T15:57:04.604Z,93205.67
2018-05-02T15:59:35.372Z,93210.53
2018-05-02T16:02:02.773Z,93207.02
2018-05-02T16:04:32.261Z,93202.91
2018-05-02T16:07:00.786Z,93206.61
2018-05-02T16:09:28.101Z,93198.04
2018-05-02T16:11:57.601Z,93198.27
2018-05-02T16:14:26.051Z,93197.95
2018-05-02T16:16:53.440Z,93204.56
2018-05-02T16:19:22.979Z,93204.00
2018-05-02T16:21:50.381Z,93204.59
2018-05-02T16:24:20.144Z,93210.27
2018-05-02T16:26:47.500Z,93213.81
2018-05-02T16:29:17.023Z,93219.91
2018-05-02T16:31:45.431Z,93221.75
2018-05-02T16:34:12.844Z,93221.36
2018-05-02T16:36:44.050Z,93227.90
2018-05-02T16:39:11.417Z,93224.78
2018-05-02T16:41:40.914Z,93234.56
2018-05-02T16:44:09.349Z,93227.04
2018-05-02T16:46:36.708Z,93227.09
2018-05-02T16:49:06.146Z,93227.36
2018-05-02T16:51:34.599Z,93225.03
2018-05-02T16:54:02.724Z,93215.98
2018-05-02T16:56:32.268Z,93215.43
2018-05-02T16:59:02.926Z,93219.94
2018-05-02T17:01:30.497Z,93217.16
2018-05-02T17:04:00.204Z,93228.61
2018-05-02T17:06:29.899Z,93230.94
2018-05-02T17:08:57.276Z,93235.67
2018-05-02T17:11:27.699Z,93247.89
2018-05-02T17:13:55.953Z,93250.82
2018-05-02T17:16:25.567Z,93241.32
2018-05-02T17:18:52.957Z,93243.30
2018-05-02T17:21:24.907Z,93250.28
2018-05-02T17:23:52.267Z,93249.70
2018-05-02T17:26:21.834Z,93256.33
2018-05-02T17:28:49.219Z,93249.07
2018-05-02T17:31:19.255Z,93250.90
2018-05-02T17:33:47.731Z,93251.84
2018-05-02T17:36:15.092Z,93248.89
2018-05-02T17:38:44.938Z,93257.16
2018-05-02T17:41:13.348Z,93260.40
2018-05-02T17:43:44.183Z,93267.80
2018-05-02T17:46:11.506Z,93265.78
2018-05-02T17:48:42.925Z,93268.59
2018-05-02T17:51:10.293Z,93269.13
2018-05-02T17:53:40.020Z,93265.44
2018-05-02T17:56:07.353Z,93271.11
2018-05-02T17:58:38.170Z,93278.92
2018-05-02T18:01:05.956Z,93272.95
2018-05-02T18:03:35.854Z,93278.05
2018-05-02T18:06:03.244Z,93278.03
2018-05-02T18:08:35.823Z,93273.20
2018-05-02T18:11:03.116Z,93286.83
2018-05-02T18:13:33.923Z,93284.19
2018-05-02T18:16:01.240Z,93286.05
2018-05-02T18:18:33.672Z,93287.78
2018-05-02T18:21:01.001Z,93289.52
2018-05-02T18:23:31.488Z,93287.88
2018-05-02T18:25:58.874Z,93292.99
2018-05-02T18:28:28.738Z,93292.71
2018-05-02T18:30:56.060Z,93295.11
2018-05-02T18:33:26.116Z,93292.11
2018-05-02T18:36:00.027Z,93293.55
2018-05-02T18:38:28.553Z,93293.87
2018-05-02T18:40:55.903Z,93296.02
2018-05-02T18:43:27.067Z,93296.27
2018-05-02T18:45:54.437Z,93290.76
2018-05-02T18:48:26.540Z,93291.14
2018-05-02T18:50:53.925Z,93290.44
2018-05-02T18:53:25.578Z,93292.30
2018-05-02T18:55:52.942Z,93295.94
2018-05-02T18:58:25.442Z,93306.03
2018-05-02T19:00:52.789Z,93303.77
2018-05-02T19:03:22.283Z,93313.73
2018-05-02T19:05:53.122Z,93313.61
2018-05-02T19:08:20.520Z,93310.04
2018-05-02T19:10:50.272Z,93303.73
2018-05-02T19:13:18.386Z,93297.73
2018-05-02T19:15:48.556Z,93300.50
2018-05-02T19:18:22.206Z,93296.70
2018-05-02T19:20:53.419Z,93301.36
2018-05-02T19:23:20.796Z,93302.54
2018-05-02T19:25:58.031Z,93304.08
2018-05-02T19:28:25.551Z,93297.03
2018-05-02T19:31:02.628Z,93303.72
2018-05-02T19:33:36.365Z,93303.13
2018-05-02T19:36:09.509Z,93303.30
2018-05-02T19:38:37.533Z,93304.01
2018-05-02T19:41:14.679Z,93308.32
2018-05-02T19:43:48.288Z,93306.38
2018-05-02T19:46:19.178Z,93312.09
2018-05-02T19:48:46.549Z,93314.88
2018-05-02T19:51:23.719Z,93317.65
2018-05-02T19:53:51.551Z,93323.81
2018-05-02T19:56:22.887Z,93321.75
2018-05-02T19:58:51.089Z,93323.58
2018-05-02T20:01:27.250Z,93326.25
2018-05-02T20:03:55.104Z,93328.12
2018-05-02T20:06:25.110Z,93332.87
2018-05-02T20:08:59.244Z,93335.58
2018-05-02T20:11:35.368Z,93338.73
2018-05-02T20:14:04.123Z,93336.55
2018-05-02T20:16:34.955Z,93339.95
2018-05-02T20:19:02.324Z,93339.08
2018-05-02T20:21:33.133Z,93345.50
2018-05-02T20:24:00.595Z,93339.14
2018-05-02T20:26:31.484Z,93341.50
2018-05-02T20:28:59.690Z,93343.27
2018-05-02T20:31:29.600Z,93340.55
2018-05-02T20:33:56.987Z,93341.71
2018-05-02T20:36:28.527Z,93337.21
2018-05-02T20:38:55.801Z,93337.48
2018-05-02T20:41:25.868Z,93351.41
2018-05-02T20:43:53.957Z,93347.22
2018-05-02T20:46:26.309Z,93344.45
2018-05-02T20:48:54.386Z,93340.44
2018-05-02T20:51:24.304Z,93341.41
2018-05-02T20:53:52.397Z,93342.83
2018-05-02T20:56:23.339Z,93333.88
2018-05-02T20:58:50.716Z,93332.47
2018-05-02T21:01:21.472Z,93334.69
2018-05-02T21:03:49.040Z,93337.52
2018-05-02T21:06:19.803Z,93333.01
2018-05-02T21:08:47.140Z,93327.20
2018-05-02T21:11:17.901Z,93325.28
2018-05-02T21:13:45.250Z,93328.11
2018-05-02T21:16:16.867Z,93331.20
2018-05-02T21:18:44.997Z,93330.70
2018-05-02T21:21:15.756Z,93332.02
2018-05-02T21:23:43.141Z,93335.95
2018-05-02T21:26:14.052Z,93341.45
2018-05-02T21:28:41.377Z,93344.09
2018-05-02T21:31:12.128Z,93344.59
2018-05-02T21:33:39.446Z,93340.70
2018-05-02T21:36:09.343Z,93346.78
2018-05-02T21:38:36.700Z,93340.55
2018-05-02T21:41:06.380Z,93342.00
2018-05-02T21:43:33.725Z,93340.64
2018-05-02T21:46:04.466Z,93338.16
2018-05-02T21:48:31.808Z,93344.82
2018-05-02T21:51:02.546Z,93341.69
2018-05-02T21:53:29.884Z,93347.59
2018-05-02T21:56:00.643Z,93349.00
2018-05-02T21:58:27.937Z,93344.56
2018-05-02T22:00:57.743Z,93343.19
2018-05-02T22:03:25.069Z,93341.16
2018-05-02T22:05:56.120Z,93345.65
2018-05-02T22:08:24.177Z,93339.78
2018-05-02T22:10:56.004Z,93342.81
2018-05-02T22:13:23.364Z,93336.96
2018-05-02T22:15:53.301Z,93351.42
2018-05-02T22:18:20.624Z,93350.95
2018-05-02T22:20:50.371Z,93351.42
2018-05-02T22:23:17.700Z,93359.73
2018-05-02T22:25:48.489Z,93363.64
2018-05-02T22:28:15.829Z,93354.91
2018-05-02T22:30:46.556Z,93351.11
2018-05-02T22:33:14.665Z,93354.37
2018-05-02T22:35:47.015Z,93359.73
2018-05-02T22:38:14.368Z,93367.45
2018-05-02T22:40:45.123Z,93365.50
2018-05-02T22:43:12.430Z,93367.59
2018-05-02T22:45:43.242Z,93374.46
2018-05-02T22:48:10.554Z,93381.39
2018-05-02T22:50:40.783Z,93369.14
2018-05-02T22:53:08.129Z,93366.58
2018-05-02T22:55:38.080Z,93373.41
2018-05-02T22:58:05.380Z,93371.94
2018-05-02T23:00:37.610Z,93361.42
2018-05-02T23:03:05.368Z,93374.25
2018-05-02T23:05:36.114Z,93376.70
2018-05-02T23:08:03.479Z,93376.70
2018-05-02T23:10:34.219Z,93382.54
2018-05-02T23:13:01.582Z,93382.10
2018-05-02T23:15:32.366Z,93382.13
2018-05-02T23:17:59.704Z,93387.59
2018-05-02T23:20:30.445Z,93393.28
2018-05-02T23:22:57.756Z,93387.39
2018-05-02T23:25:28.506Z,93387.52
2018-05-02T23:27:55.892Z,93386.20
2018-05-02T23:30:23.286Z,93390.85
2018-05-02T23:32:54.016Z,93386.48
2018-05-02T23:35:21.352Z,93388.25
2018-05-02T23:37:48.688Z,93386.64
2018-05-02T23:40:16.053Z,93386.36
2018-05-02T23:42:43.398Z,93393.41
2018-05-02T23:45:10.728Z,93394.69
2018-05-02T23:47:38.024Z,93384.25
2018-05-02T23:50:05.345Z,93383.98
2018-05-02T23:52:32.775Z,93389.88
2018-05-02T23:55:00.805Z,93390.27
2018-05-02T23:57:28.127Z,93399.19
2018-05-02T23:59:55.429Z,93401.81
